Throop, New York
Current Conditions -  °F | °C
As of 1:54 PM on Tuesday 21 Oct 2014 (Local Time) from KSYR Reporting Station
Overcast Overcast  
Wind Chill: 11°   Ceiling: 4000
Heat Index: 11°   Visibility: 10mi
Dew Point:   Wind: 0mph
Humidity: 90%   Direction: NA
Pressure: 29.87"   Gusts: NA
Location:  42.9235°N, 76.5525°W
Report Text: KSYR 211754Z 00000KT 10SM SCT023 BKN040 OVC055 11/09 A2987 RMK DZE33 SLP112 T01060091 10106 20089 51003
Loading
Personal Weather Stations






























Interactive Weather Map
Tropical Storm Tracking
New forecast layout! Learn more

10-Day Weather Forecast

Advertisements
Track Severe Weather on mobile